Time;durP1;ratioP1;P1;durP2;ratioP2;P2;SDS_P1;SDS_P2;PMS_P1;PMS_P2;Temp;Humidity;BMP_temperature;BMP_pressure;BME280_temperature;BME280_humidity;BME280_pressure;Samples;Min_cycle;Max_cycle;Signal;HPM_P1;HPM_P2
2021/12/21 00:02:24;;;;;;;7.20;4.35;;;2.50;96.20;;;;;;5084574;28;20468;-73
2021/12/21 00:04:50;;;;;;;7.53;3.80;;;2.60;96.00;;;;;;5085434;28;20562;-73
2021/12/21 00:07:16;;;;;;;9.40;3.50;;;2.50;95.80;;;;;;5085609;28;20025;-73
2021/12/21 00:09:42;;;;;;;7.30;3.53;;;2.50;95.60;;;;;;5080649;28;20470;-73
2021/12/21 00:12:08;;;;;;;7.65;3.90;;;2.50;95.30;;;;;;5065450;28;20064;-73
2021/12/21 00:14:50;;;;;;;5.72;2.85;;;2.50;95.50;;;;;;5080424;28;20024;-73
2021/12/21 00:17:42;;;;;;;8.80;4.43;;;2.70;95.30;;;;;;5067520;28;20028;-73
2021/12/21 00:25:02;;;;;;;8.10;3.72;;;3.30;94.30;;;;;;5090794;28;20032;-73
2021/12/21 00:27:28;;;;;;;6.95;3.17;;;3.20;94.40;;;;;;5090761;28;20085;-73
2021/12/21 00:29:53;;;;;;;7.22;3.78;;;3.10;94.60;;;;;;5092364;28;20048;-73
2021/12/21 00:32:19;;;;;;;11.77;4.88;;;2.90;94.60;;;;;;5093954;28;20035;-73
2021/12/21 00:34:45;;;;;;;9.30;4.75;;;2.70;95.00;;;;;;5094074;28;20025;-73
2021/12/21 00:37:11;;;;;;;10.88;5.53;;;2.50;95.80;;;;;;5093928;28;20032;-73
2021/12/21 00:39:36;;;;;;;7.30;3.83;;;2.30;96.20;;;;;;5094284;28;20024;-73
2021/12/21 00:42:03;;;;;;;5.57;2.50;;;2.30;96.00;;;;;;5094533;28;20028;-73
2021/12/21 00:44:29;;;;;;;9.98;4.03;;;2.20;95.70;;;;;;5094336;28;20035;-73
2021/12/21 00:46:54;;;;;;;5.70;3.63;;;2.20;95.90;;;;;;5093563;28;20016;-73
2021/12/21 00:49:21;;;;;;;5.97;2.70;;;2.30;95.90;;;;;;5093793;28;20039;-73
2021/12/21 00:51:47;;;;;;;8.23;4.20;;;2.40;96.00;;;;;;5091416;28;20371;-73
2021/12/21 00:54:15;;;;;;;9.15;4.60;;;2.50;95.80;;;;;;5093059;28;20032;-73
2021/12/21 00:56:41;;;;;;;10.23;4.30;;;2.50;96.00;;;;;;5092955;28;20032;-73
2021/12/21 00:59:07;;;;;;;11.90;5.75;;;2.30;96.00;;;;;;5093220;28;20074;-73
2021/12/21 01:01:40;;;;;;;11.95;5.53;;;2.20;96.50;;;;;;5092808;28;20030;-73
2021/12/21 01:04:10;;;;;;;11.32;5.30;;;2.20;96.50;;;;;;5092920;28;20063;-73
2021/12/21 01:06:43;;;;;;;12.18;6.07;;;2.10;96.50;;;;;;5087680;28;20387;-72
2021/12/21 01:11:43;;;;;;;6.55;3.38;;;2.20;96.10;;;;;;5087619;28;20039;-73
2021/12/21 01:17:01;;;;;;;10.68;4.45;;;2.50;95.40;;;;;;5090839;28;20040;-73
2021/12/21 01:19:50;;;;;;;6.88;3.67;;;2.60;95.30;;;;;;5090715;28;20039;-73
2021/12/21 01:27:51;;;;;;;7.00;3.40;;;2.10;95.80;;;;;;5090730;28;20038;-73
2021/12/21 01:35:31;;;;;;;6.57;2.75;;;2.50;95.30;;;;;;5092212;28;20394;-73
2021/12/21 01:38:08;;;;;;;6.57;2.67;;;2.40;95.20;;;;;;5084231;28;20093;-73
2021/12/21 01:40:52;;;;;;;4.93;2.20;;;2.40;95.20;;;;;;5092636;28;20055;-73
2021/12/21 01:51:19;;;;;;;6.80;2.88;;;2.30;95.70;;;;;;5091798;28;20429;-73
2021/12/21 01:53:45;;;;;;;6.30;3.50;;;2.30;95.70;;;;;;5092184;28;20036;-73
2021/12/21 01:56:12;;;;;;;8.50;4.00;;;2.40;95.70;;;;;;5091545;28;20038;-72
2021/12/21 01:58:39;;;;;;;10.00;3.42;;;2.20;95.70;;;;;;5090521;28;20028;-73
2021/12/21 02:01:07;;;;;;;8.25;3.80;;;2.30;95.70;;;;;;5092067;28;20538;-73
2021/12/21 02:03:33;;;;;;;6.07;2.80;;;2.70;95.20;;;;;;5092100;28;20466;-73
2021/12/21 02:05:59;;;;;;;5.30;2.70;;;2.70;95.00;;;;;;5091244;28;20696;-73
2021/12/21 02:08:26;;;;;;;5.93;2.58;;;2.70;95.10;;;;;;5091775;28;20060;-73
2021/12/21 02:10:51;;;;;;;5.82;2.85;;;2.90;95.00;;;;;;5092270;28;20028;-73
2021/12/21 02:13:17;;;;;;;7.80;4.00;;;2.90;94.80;;;;;;5091266;28;20078;-73
2021/12/21 02:15:43;;;;;;;7.47;3.80;;;2.50;95.10;;;;;;5091325;28;20031;-73
2021/12/21 02:21:01;;;;;;;6.50;2.47;;;2.00;96.20;;;;;;5091851;28;20505;-73
2021/12/21 02:23:33;;;;;;;5.00;2.45;;;2.00;96.10;;;;;;5091268;28;20454;-73
2021/12/21 02:28:47;;;;;;;6.20;2.88;;;2.10;96.30;;;;;;5091344;28;20047;-73
2021/12/21 02:31:16;;;;;;;5.03;2.60;;;2.00;96.10;;;;;;5091361;28;20024;-73
2021/12/21 02:33:42;;;;;;;5.85;3.03;;;1.90;96.40;;;;;;5091635;28;20028;-73
2021/12/21 02:36:08;;;;;;;5.63;2.95;;;1.90;96.40;;;;;;5090629;28;20123;-72
2021/12/21 02:38:33;;;;;;;8.65;2.58;;;1.90;96.30;;;;;;5085188;28;20119;-73
2021/12/21 02:40:59;;;;;;;6.63;2.50;;;1.90;96.20;;;;;;5077422;28;20032;-73
2021/12/21 02:43:28;;;;;;;6.25;2.63;;;1.90;96.30;;;;;;5090943;28;20036;-73
2021/12/21 02:45:54;;;;;;;6.15;3.50;;;1.90;96.40;;;;;;5090234;28;20459;-73
2021/12/21 02:48:20;;;;;;;7.10;3.70;;;1.90;96.50;;;;;;5090872;28;20125;-72
2021/12/21 02:50:46;;;;;;;5.95;2.28;;;1.80;96.70;;;;;;5091013;28;20116;-73
2021/12/21 02:53:12;;;;;;;4.85;2.42;;;1.60;96.90;;;;;;5089975;28;20106;-73
2021/12/21 02:55:38;;;;;;;5.30;2.50;;;1.80;96.80;;;;;;5090347;28;20024;-73
2021/12/21 02:58:04;;;;;;;5.47;2.63;;;1.90;96.50;;;;;;5090466;28;20047;-72
2021/12/21 03:00:33;;;;;;;5.53;1.75;;;1.90;96.30;;;;;;5090993;28;20077;-72
2021/12/21 03:03:06;;;;;;;4.60;1.85;;;2.00;96.30;;;;;;5091036;28;20142;-72
2021/12/21 03:05:32;;;;;;;5.57;2.78;;;1.90;96.40;;;;;;5090802;28;20036;-73
2021/12/21 03:08:16;;;;;;;6.43;3.58;;;1.70;96.60;;;;;;5090767;28;20039;-73
2021/12/21 03:10:58;;;;;;;6.50;2.55;;;1.60;96.90;;;;;;5090532;28;20119;-73
2021/12/21 03:16:09;;;;;;;5.93;2.78;;;1.60;97.40;;;;;;5090538;28;20499;-73
2021/12/21 03:18:34;;;;;;;6.28;2.75;;;1.50;97.00;;;;;;5090925;28;20020;-73
2021/12/21 03:21:00;;;;;;;7.03;2.63;;;1.40;97.10;;;;;;5090484;28;20023;-72
2021/12/21 03:23:26;;;;;;;5.55;2.80;;;1.60;97.10;;;;;;5090523;28;20035;-73
2021/12/21 03:25:52;;;;;;;5.15;2.53;;;1.60;97.00;;;;;;5090692;28;20036;-72
2021/12/21 03:28:17;;;;;;;6.57;2.47;;;1.70;96.80;;;;;;5089424;28;20397;-72
2021/12/21 03:30:43;;;;;;;6.32;2.35;;;1.90;96.60;;;;;;5070937;28;20036;-72
2021/12/21 03:33:09;;;;;;;5.97;2.78;;;1.80;96.60;;;;;;5087800;28;20024;-73
2021/12/21 03:35:35;;;;;;;6.00;3.10;;;1.80;96.70;;;;;;5090643;28;20385;-73
2021/12/21 03:38:00;;;;;;;4.45;2.20;;;1.60;97.00;;;;;;5090476;28;20172;-73
2021/12/21 03:40:31;;;;;;;9.25;2.42;;;1.70;97.00;;;;;;5090329;28;20032;-73
2021/12/21 03:42:57;;;;;;;5.45;2.67;;;1.90;96.70;;;;;;5074200;28;20390;-73
2021/12/21 03:45:23;;;;;;;5.93;2.58;;;1.60;96.90;;;;;;5090992;28;20032;-73
2021/12/21 03:47:49;;;;;;;6.45;3.30;;;1.50;97.20;;;;;;5089312;28;20028;-73
2021/12/21 03:50:19;;;;;;;6.88;2.50;;;1.50;97.30;;;;;;5090352;28;20038;-72
2021/12/21 03:52:45;;;;;;;14.95;3.42;;;1.40;97.50;;;;;;5090229;28;20118;-73
2021/12/21 03:55:11;;;;;;;5.20;2.40;;;1.60;97.50;;;;;;5090096;28;20024;-73
2021/12/21 03:57:37;;;;;;;5.47;2.60;;;1.30;98.30;;;;;;5089830;28;20042;-72
2021/12/21 04:00:07;;;;;;;6.00;2.88;;;1.20;98.10;;;;;;5089857;28;20149;-73
2021/12/21 04:02:33;;;;;;;6.35;2.78;;;1.10;98.20;;;;;;5081358;28;20036;-73
2021/12/21 04:04:59;;;;;;;7.03;2.47;;;1.00;98.30;;;;;;5082776;28;20101;-73
2021/12/21 04:07:27;;;;;;;5.10;2.50;;;1.00;98.30;;;;;;5086692;28;20089;-73
2021/12/21 04:09:54;;;;;;;6.50;2.63;;;1.00;98.40;;;;;;5086283;28;20065;-73
2021/12/21 04:12:20;;;;;;;5.20;2.80;;;1.00;98.60;;;;;;5086684;28;20123;-73
2021/12/21 04:14:46;;;;;;;6.35;2.78;;;1.00;98.40;;;;;;5087214;28;20073;-73
2021/12/21 04:17:21;;;;;;;7.63;3.58;;;1.10;98.20;;;;;;5086815;28;20039;-73
2021/12/21 04:19:48;;;;;;;9.30;3.42;;;1.40;97.70;;;;;;5085734;28;20504;-73
2021/12/21 04:22:16;;;;;;;6.70;3.17;;;1.60;97.40;;;;;;5088108;28;20032;-72
2021/12/21 04:24:42;;;;;;;5.78;3.03;;;1.60;97.10;;;;;;5088940;28;20110;-73
2021/12/21 04:27:08;;;;;;;11.63;3.78;;;1.60;97.20;;;;;;5089521;28;20107;-73
2021/12/21 04:29:34;;;;;;;7.78;4.50;;;1.70;97.00;;;;;;5088791;28;20039;-73
2021/12/21 04:32:00;;;;;;;6.25;2.50;;;1.80;96.80;;;;;;5089298;28;20652;-73
2021/12/21 04:34:26;;;;;;;5.80;3.47;;;1.60;97.20;;;;;;5088941;28;20032;-72
2021/12/21 04:36:52;;;;;;;4.20;2.28;;;1.60;97.30;;;;;;5089562;28;20040;-73
2021/12/21 04:39:29;;;;;;;5.30;2.35;;;1.60;97.20;;;;;;5089092;28;20028;-73
2021/12/21 04:41:54;;;;;;;7.85;2.70;;;1.40;97.50;;;;;;5084313;28;20130;-72
2021/12/21 04:44:20;;;;;;;7.35;3.42;;;1.30;97.70;;;;;;5077999;28;20469;-73
2021/12/21 04:46:46;;;;;;;6.60;3.25;;;1.40;97.60;;;;;;5087772;28;20028;-73
2021/12/21 04:49:12;;;;;;;7.00;3.03;;;1.30;97.60;;;;;;5087454;28;20319;-73
2021/12/21 04:51:38;;;;;;;6.10;3.47;;;1.60;97.00;;;;;;5086949;28;20062;-73
2021/12/21 04:54:03;;;;;;;6.93;3.65;;;1.70;97.00;;;;;;5087167;28;20028;-73
2021/12/21 04:56:29;;;;;;;10.50;3.40;;;1.70;97.10;;;;;;5087312;28;20039;-73
2021/12/21 04:58:55;;;;;;;9.02;3.88;;;1.70;97.00;;;;;;5084761;28;20032;-73
2021/12/21 05:01:21;;;;;;;6.82;3.40;;;1.80;97.10;;;;;;5084617;28;20121;-73
2021/12/21 05:03:46;;;;;;;7.28;3.00;;;1.80;96.90;;;;;;5085949;28;20386;-73
2021/12/21 05:06:14;;;;;;;7.43;3.90;;;1.80;96.50;;;;;;5084749;28;20086;-72
2021/12/21 05:08:40;;;;;;;5.13;2.72;;;1.90;96.30;;;;;;5086214;28;21012;-73
2021/12/21 05:11:07;;;;;;;8.93;2.92;;;1.90;96.40;;;;;;5085508;28;20046;-73
2021/12/21 05:13:38;;;;;;;7.38;3.67;;;1.80;96.60;;;;;;5085222;28;20035;-72
2021/12/21 05:16:05;;;;;;;6.85;3.50;;;1.80;96.90;;;;;;5083830;28;20115;-73
2021/12/21 05:18:32;;;;;;;7.00;3.80;;;1.70;96.80;;;;;;5085600;28;20497;-73
2021/12/21 05:20:58;;;;;;;7.30;3.95;;;1.40;97.00;;;;;;5084166;28;20024;-72
2021/12/21 05:23:24;;;;;;;11.60;4.60;;;1.30;97.40;;;;;;5085224;28;20656;-73
2021/12/21 05:25:50;;;;;;;11.38;5.43;;;1.30;97.70;;;;;;5085028;28;20032;-73
2021/12/21 05:28:16;;;;;;;10.25;5.43;;;1.20;97.90;;;;;;5084510;28;20111;-73
2021/12/21 05:30:43;;;;;;;8.80;4.70;;;1.10;98.00;;;;;;5084879;28;20028;-72
2021/12/21 05:33:09;;;;;;;8.77;5.15;;;1.10;98.30;;;;;;5084486;28;20032;-73
2021/12/21 05:35:36;;;;;;;8.75;4.85;;;1.10;98.60;;;;;;5084926;28;20602;-73
2021/12/21 05:38:07;;;;;;;9.90;4.47;;;1.10;98.70;;;;;;5085418;28;20577;-73
2021/12/21 05:40:37;;;;;;;9.07;4.50;;;1.00;98.70;;;;;;5084729;28;20555;-73
2021/12/21 05:43:04;;;;;;;8.32;4.63;;;1.00;98.80;;;;;;5081213;28;20823;-73
2021/12/21 05:45:30;;;;;;;13.23;6.18;;;1.10;98.70;;;;;;5078352;28;20590;-73
2021/12/21 05:47:55;;;;;;;7.53;4.28;;;1.10;98.70;;;;;;5083574;28;20107;-73
2021/12/21 05:50:21;;;;;;;9.80;4.53;;;1.00;98.50;;;;;;5082420;28;20032;-73
2021/12/21 05:52:49;;;;;;;9.77;3.80;;;1.00;98.60;;;;;;5082473;28;20032;-73
2021/12/21 05:55:17;;;;;;;8.27;3.70;;;0.90;98.20;;;;;;5082936;28;20030;-73
2021/12/21 05:57:43;;;;;;;5.95;3.40;;;0.90;98.50;;;;;;5083321;28;20047;-72
2021/12/21 06:00:13;;;;;;;7.82;4.07;;;0.90;98.60;;;;;;5082709;28;20549;-72
2021/12/21 06:02:39;;;;;;;7.15;3.95;;;1.00;98.70;;;;;;5083309;28;20051;-73
2021/12/21 06:05:06;;;;;;;6.10;3.22;;;1.10;98.50;;;;;;5083419;28;20142;-72
2021/12/21 06:07:32;;;;;;;9.60;4.53;;;1.00;98.70;;;;;;5084327;28;20386;-73
2021/12/21 06:09:59;;;;;;;8.52;4.45;;;0.90;98.80;;;;;;5084413;28;20035;-73
2021/12/21 06:12:53;;;;;;;8.27;3.83;;;0.90;99.20;;;;;;5084096;28;20479;-73
2021/12/21 06:15:26;;;;;;;7.07;4.05;;;0.90;99.50;;;;;;5083786;28;20035;-73
2021/12/21 06:25:56;;;;;;;11.40;6.07;;;1.30;98.80;;;;;;5083300;28;20028;-73
2021/12/21 06:28:23;;;;;;;10.77;4.20;;;1.30;98.50;;;;;;5082905;28;20035;-73
2021/12/21 06:30:49;;;;;;;8.52;4.20;;;1.30;98.10;;;;;;5084049;28;20024;-73
2021/12/21 06:33:15;;;;;;;7.72;3.80;;;1.40;97.70;;;;;;5088010;28;20027;-74
2021/12/21 06:35:41;;;;;;;7.28;3.55;;;1.50;97.60;;;;;;5083932;28;20031;-74
2021/12/21 06:38:07;;;;;;;8.35;4.05;;;1.50;97.70;;;;;;5082820;28;20023;-73
2021/12/21 06:40:34;;;;;;;7.80;3.67;;;1.40;98.00;;;;;;5084120;28;20447;-74
2021/12/21 06:43:01;;;;;;;7.60;4.05;;;1.70;98.20;;;;;;5084647;28;20046;-74
2021/12/21 06:45:46;;;;;;;10.60;4.90;;;1.50;97.70;;;;;;5073941;28;20725;-73
2021/12/21 06:51:25;;;;;;;10.25;4.63;;;1.50;98.00;;;;;;5082579;28;20046;-73
2021/12/21 06:53:53;;;;;;;9.25;4.43;;;1.50;98.30;;;;;;5082727;28;20032;-72
2021/12/21 06:56:20;;;;;;;9.88;4.15;;;1.40;98.50;;;;;;5086249;28;20039;-74
2021/12/21 06:58:45;;;;;;;8.18;4.28;;;1.40;98.70;;;;;;5083475;28;20638;-73
2021/12/21 07:01:13;;;;;;;12.00;4.82;;;1.40;99.10;;;;;;5082531;28;20034;-75
2021/12/21 07:03:41;;;;;;;9.52;4.10;;;1.30;99.10;;;;;;5081837;28;20424;-75
2021/12/21 07:06:07;;;;;;;11.75;5.57;;;1.30;98.70;;;;;;5083152;28;20036;-74
2021/12/21 07:08:44;;;;;;;9.85;4.97;;;1.50;98.70;;;;;;5084043;28;20059;-74
2021/12/21 07:11:46;;;;;;;11.18;5.88;;;1.60;98.80;;;;;;5084215;28;20064;-75
2021/12/21 07:19:34;;;;;;;9.95;5.70;;;1.60;99.50;;;;;;5083112;28;20058;-75
2021/12/21 07:22:00;;;;;;;8.93;5.10;;;1.50;99.20;;;;;;5082421;28;20771;-75
2021/12/21 07:24:26;;;;;;;11.82;5.72;;;1.40;99.00;;;;;;5082297;28;20120;-75
2021/12/21 07:26:52;;;;;;;11.95;5.15;;;1.40;98.90;;;;;;5081670;28;20040;-75
2021/12/21 07:29:18;;;;;;;8.70;4.70;;;1.40;98.70;;;;;;5082661;28;20032;-76
2021/12/21 07:31:45;;;;;;;10.43;5.65;;;1.50;98.50;;;;;;5082204;28;20024;-75
2021/12/21 07:34:11;;;;;;;9.02;5.20;;;1.60;98.30;;;;;;5081998;28;20127;-74
2021/12/21 07:36:37;;;;;;;11.40;5.07;;;1.70;99.10;;;;;;5083244;28;20131;-74
2021/12/21 07:39:06;;;;;;;10.40;5.25;;;1.70;99.40;;;;;;5085225;28;20024;-74
2021/12/21 07:41:32;;;;;;;14.80;6.70;;;1.60;99.40;;;;;;5087897;28;20032;-74
2021/12/21 07:43:58;;;;;;;12.23;5.80;;;1.60;98.80;;;;;;5087660;28;20626;-74
2021/12/21 07:46:24;;;;;;;9.85;4.88;;;1.70;98.50;;;;;;5087862;28;20109;-74
2021/12/21 07:48:50;;;;;;;11.15;5.75;;;1.70;98.50;;;;;;5087244;28;20028;-74
2021/12/21 07:51:16;;;;;;;11.55;6.00;;;1.70;98.70;;;;;;5085594;28;20055;-74
2021/12/21 07:53:42;;;;;;;8.48;4.82;;;1.70;98.60;;;;;;5087313;28;20116;-74
2021/12/21 07:56:08;;;;;;;12.05;5.95;;;1.80;98.80;;;;;;5086993;28;20478;-74
2021/12/21 07:58:35;;;;;;;14.43;7.20;;;1.70;98.90;;;;;;5087369;28;20108;-74
2021/12/21 08:01:04;;;;;;;10.57;5.88;;;1.70;99.10;;;;;;5087537;28;20025;-74
2021/12/21 08:03:32;;;;;;;8.95;5.93;;;1.60;99.50;;;;;;5086527;28;20024;-74
2021/12/21 08:05:59;;;;;;;13.25;6.22;;;1.60;98.60;;;;;;5088002;28;20044;-76
2021/12/21 08:08:28;;;;;;;12.52;6.25;;;1.70;98.10;;;;;;5089732;28;20165;-76
2021/12/21 08:11:10;;;;;;;11.05;5.82;;;1.80;98.40;;;;;;5088284;28;20013;-77
2021/12/21 08:13:37;;;;;;;15.80;7.25;;;1.90;98.90;;;;;;5088197;28;20024;-76
2021/12/21 08:16:03;;;;;;;12.45;7.15;;;1.90;98.60;;;;;;5079493;28;20040;-76
2021/12/21 08:18:29;;;;;;;31.20;15.40;;;2.00;98.50;;;;;;5076767;28;20867;-76
2021/12/21 08:20:54;;;;;;;14.45;6.05;;;2.00;98.20;;;;;;5086815;28;20032;-77
2021/12/21 08:23:20;;;;;;;10.30;6.53;;;2.00;97.90;;;;;;5086826;28;20036;-76
2021/12/21 08:25:47;;;;;;;11.18;6.25;;;1.90;98.30;;;;;;5086987;28;20039;-76
2021/12/21 08:28:13;;;;;;;16.25;6.15;;;1.80;98.60;;;;;;5086617;28;20032;-75
2021/12/21 08:30:39;;;;;;;10.27;5.53;;;1.90;98.20;;;;;;5089668;28;20439;-77
2021/12/21 08:33:05;;;;;;;9.73;5.38;;;2.90;99.90;;;;;;5089418;28;20103;-77
2021/12/21 08:35:31;;;;;;;10.88;5.57;;;2.70;96.90;;;;;;5091139;28;20085;-78
2021/12/21 08:38:05;;;;;;;13.23;4.72;;;2.40;96.30;;;;;;5089614;28;20043;-82
2021/12/21 08:40:38;;;;;;;12.77;6.95;;;2.50;95.80;;;;;;5071126;28;20020;-78
2021/12/21 08:43:14;;;;;;;15.35;8.00;;;2.40;96.90;;;;;;5071384;28;20027;-84
2021/12/21 08:45:42;;;;;;;33.35;14.95;;;2.00;97.50;;;;;;5071889;28;20493;-81
2021/12/21 08:48:08;;;;;;;73.10;53.05;;;1.90;98.10;;;;;;5071909;28;20032;-81
2021/12/21 08:50:35;;;;;;;28.63;23.13;;;1.90;98.40;;;;;;5088875;28;20020;-79
2021/12/21 08:53:02;;;;;;;27.40;18.30;;;1.90;97.90;;;;;;5090757;28;20099;-79
2021/12/21 08:55:28;;;;;;;12.00;6.40;;;2.10;97.70;;;;;;5090736;28;20016;-76
2021/12/21 08:57:54;;;;;;;14.95;6.82;;;2.20;96.50;;;;;;5090707;28;20094;-80
2021/12/21 09:00:21;;;;;;;10.93;6.07;;;2.30;95.90;;;;;;5090117;28;20020;-79
2021/12/21 09:02:46;;;;;;;8.35;5.60;;;2.30;95.80;;;;;;5090411;28;20115;-76
2021/12/21 09:05:18;;;;;;;7.30;5.03;;;2.30;95.60;;;;;;5090174;28;20126;-80
2021/12/21 09:07:46;;;;;;;12.25;6.30;;;2.20;95.80;;;;;;5090929;28;20028;-78
2021/12/21 09:10:14;;;;;;;12.23;5.35;;;2.10;95.80;;;;;;5090314;28;20032;-79
2021/12/21 09:12:40;;;;;;;18.00;6.82;;;2.10;95.00;;;;;;5091032;28;20628;-77
2021/12/21 09:15:08;;;;;;;13.70;7.82;;;2.10;96.30;;;;;;5089681;28;20024;-74
2021/12/21 09:17:34;;;;;;;20.63;10.52;;;2.20;96.60;;;;;;5086505;28;20101;-76
2021/12/21 09:20:01;;;;;;;20.95;11.93;;;2.30;96.80;;;;;;5089204;28;20525;-75
2021/12/21 09:22:26;;;;;;;18.33;11.20;;;2.30;96.80;;;;;;5088214;28;20038;-76
2021/12/21 09:24:52;;;;;;;22.38;9.98;;;2.40;96.70;;;;;;5089518;28;20106;-76
2021/12/21 09:27:18;;;;;;;14.68;8.50;;;2.40;96.80;;;;;;5089330;28;20440;-73
2021/12/21 09:29:45;;;;;;;16.55;10.27;;;2.40;96.50;;;;;;5089646;28;20020;-74
2021/12/21 09:32:13;;;;;;;22.15;11.13;;;2.10;97.50;;;;;;5088930;28;20039;-74
2021/12/21 09:34:42;;;;;;;17.55;8.77;;;2.00;98.00;;;;;;5089434;28;20646;-75
2021/12/21 09:37:14;;;;;;;12.70;6.60;;;1.90;97.60;;;;;;5086722;28;20502;-74
2021/12/21 09:39:46;;;;;;;14.57;8.88;;;1.80;97.10;;;;;;5086251;28;20020;-77
2021/12/21 09:42:14;;;;;;;18.80;8.48;;;2.10;97.90;;;;;;5085892;28;20035;-76
2021/12/21 09:44:40;;;;;;;16.77;8.13;;;3.90;97.40;;;;;;5086180;28;20020;-75
2021/12/21 09:47:09;;;;;;;13.35;7.38;;;3.10;95.60;;;;;;5085891;28;20070;-74
2021/12/21 09:49:35;;;;;;;10.32;6.55;;;2.70;95.90;;;;;;5085958;28;20119;-75
2021/12/21 09:52:01;;;;;;;13.55;7.28;;;2.50;96.30;;;;;;5085638;28;20160;-74
2021/12/21 09:54:27;;;;;;;15.07;7.40;;;2.50;96.50;;;;;;5084757;28;20032;-75
2021/12/21 09:56:53;;;;;;;16.83;8.30;;;2.30;97.00;;;;;;5085633;28;20352;-74
2021/12/21 09:59:19;;;;;;;15.20;7.03;;;2.10;96.90;;;;;;5085456;28;20166;-73
2021/12/21 10:01:45;;;;;;;12.43;6.43;;;2.10;97.10;;;;;;5085091;28;20024;-76
2021/12/21 10:04:11;;;;;;;11.93;6.07;;;2.20;97.10;;;;;;5085657;28;20292;-73
2021/12/21 10:06:49;;;;;;;12.00;5.95;;;2.20;96.40;;;;;;5085228;28;20102;-76
2021/12/21 10:09:16;;;;;;;10.07;5.50;;;2.30;96.40;;;;;;5085807;28;20024;-75
2021/12/21 10:11:44;;;;;;;10.80;4.22;;;2.20;95.90;;;;;;5085579;28;20031;-74
2021/12/21 10:14:10;;;;;;;9.15;5.38;;;2.30;95.70;;;;;;5085968;28;20024;-75
2021/12/21 10:16:36;;;;;;;11.13;6.13;;;2.20;96.00;;;;;;5085677;28;20555;-75
2021/12/21 10:19:05;;;;;;;11.88;7.07;;;2.30;96.60;;;;;;5069930;28;20128;-76
2021/12/21 10:21:31;;;;;;;9.88;5.97;;;2.20;97.20;;;;;;5063963;28;20078;-75
2021/12/21 10:23:57;;;;;;;14.80;7.95;;;2.30;96.20;;;;;;5062915;28;20024;-75
2021/12/21 10:26:29;;;;;;;15.20;8.95;;;2.30;96.70;;;;;;5063236;28;20580;-75
2021/12/21 10:29:05;;;;;;;14.23;7.47;;;2.30;96.70;;;;;;5078800;28;20068;-77
2021/12/21 10:31:36;;;;;;;11.52;6.65;;;2.40;96.80;;;;;;5083731;28;20040;-75
2021/12/21 10:34:05;;;;;;;13.35;6.80;;;2.40;96.70;;;;;;5081589;28;20426;-75
2021/12/21 10:36:39;;;;;;;16.25;7.13;;;2.40;96.80;;;;;;5083639;28;20474;-75
2021/12/21 10:39:05;;;;;;;10.93;6.43;;;2.40;96.70;;;;;;5084076;28;20089;-75
2021/12/21 10:41:44;;;;;;;23.30;8.05;;;2.20;96.70;;;;;;5084852;28;20027;-75
2021/12/21 10:44:12;;;;;;;13.70;6.40;;;2.10;96.50;;;;;;5082991;28;20028;-75
2021/12/21 10:46:41;;;;;;;16.40;7.20;;;2.20;96.40;;;;;;5083504;28;20458;-75
2021/12/21 10:49:13;;;;;;;11.35;6.55;;;2.20;96.70;;;;;;5084623;28;20031;-75
2021/12/21 10:51:51;;;;;;;16.35;8.43;;;2.40;96.80;;;;;;5083051;28;20035;-75
2021/12/21 10:54:47;;;;;;;15.57;8.80;;;2.50;96.80;;;;;;5083843;28;20085;-75
2021/12/21 10:57:26;;;;;;;15.18;8.02;;;2.30;96.90;;;;;;5074819;28;20060;-76
2021/12/21 10:59:56;;;;;;;11.85;6.70;;;2.30;97.00;;;;;;5083642;28;20113;-75
2021/12/21 11:02:28;;;;;;;13.82;6.80;;;2.30;97.00;;;;;;5084265;28;20028;-76
2021/12/21 11:04:59;;;;;;;14.00;8.20;;;2.50;97.00;;;;;;5083965;28;20185;-75
2021/12/21 11:07:33;;;;;;;19.50;10.82;;;2.60;96.90;;;;;;5086859;28;20024;-75
2021/12/21 11:10:00;;;;;;;15.07;8.40;;;2.50;97.00;;;;;;5086342;28;20027;-75
2021/12/21 11:12:28;;;;;;;15.95;8.00;;;2.30;97.30;;;;;;5086346;28;20498;-75
2021/12/21 11:14:57;;;;;;;13.52;8.52;;;2.30;97.10;;;;;;5086585;28;20060;-75
2021/12/21 11:17:23;;;;;;;17.98;8.52;;;2.40;97.00;;;;;;5086501;28;20067;-75
2021/12/21 11:19:53;;;;;;;12.63;7.40;;;2.50;96.50;;;;;;5079200;28;20032;-75
2021/12/21 11:22:21;;;;;;;20.13;9.07;;;2.50;96.10;;;;;;5085062;28;20044;-75
2021/12/21 11:24:48;;;;;;;14.27;8.45;;;2.30;97.00;;;;;;5084680;28;20060;-75
2021/12/21 11:27:15;;;;;;;17.63;8.68;;;2.20;97.30;;;;;;5084375;28;20065;-76
2021/12/21 11:29:43;;;;;;;15.25;9.50;;;2.30;97.30;;;;;;5084499;28;20501;-75
2021/12/21 11:32:12;;;;;;;17.05;8.88;;;2.40;97.20;;;;;;5082673;28;20027;-75
2021/12/21 11:34:57;;;;;;;14.05;7.80;;;2.30;97.70;;;;;;5082312;28;20703;-76
2021/12/21 11:37:27;;;;;;;;;;;2.10;97.70;;;;;;5085273;28;20181;-75
2021/12/21 11:39:54;;;;;;;15.30;8.07;;;2.00;97.70;;;;;;5086482;28;19915;-75
2021/12/21 11:42:38;;;;;;;13.15;8.15;;;2.00;97.90;;;;;;5086179;28;20028;-75
2021/12/21 11:45:13;;;;;;;19.43;8.47;;;2.10;97.90;;;;;;5087049;28;20107;-75
2021/12/21 11:47:53;;;;;;;14.55;7.82;;;2.30;98.10;;;;;;5087114;28;20032;-76
2021/12/21 11:50:19;;;;;;;14.00;8.50;;;2.20;98.10;;;;;;5086910;28;20020;-75
2021/12/21 11:52:49;;;;;;;15.73;7.95;;;2.10;98.00;;;;;;5086053;28;20024;-75
2021/12/21 11:55:17;;;;;;;15.30;7.78;;;2.10;98.00;;;;;;5086297;28;20032;-75
2021/12/21 11:57:47;;;;;;;16.30;7.55;;;2.20;97.80;;;;;;5086333;28;20044;-76
2021/12/21 12:00:15;;;;;;;24.02;8.23;;;2.30;97.60;;;;;;5086520;28;20024;-75
2021/12/21 12:02:42;;;;;;;11.68;7.57;;;2.40;97.30;;;;;;5086081;28;20028;-76
2021/12/21 12:05:30;;;;;;;15.10;7.97;;;2.50;97.30;;;;;;5085781;28;20434;-76
2021/12/21 12:08:06;;;;;;;12.23;7.03;;;2.60;97.50;;;;;;5071800;28;20028;-74
2021/12/21 12:10:39;;;;;;;12.73;7.15;;;2.70;97.30;;;;;;5085356;28;20592;-75
2021/12/21 12:13:14;;;;;;;17.15;8.57;;;2.70;97.30;;;;;;5086100;28;20028;-76
2021/12/21 19:07:16;;;;;;;13.90;6.97;;;2.50;97.10;;;;;;5100845;27;20381;-74
2021/12/21 19:09:41;;;;;;;14.77;6.20;;;2.90;96.80;;;;;;5115708;28;20482;-74
2021/12/21 19:12:07;;;;;;;13.02;7.20;;;2.80;96.30;;;;;;5102897;28;20020;-75
2021/12/21 19:14:33;;;;;;;11.95;6.03;;;2.80;97.00;;;;;;5102455;28;20030;-74
2021/12/21 19:16:59;;;;;;;10.73;6.55;;;2.90;97.30;;;;;;5120388;28;20110;-75
2021/12/21 19:19:25;;;;;;;11.50;5.80;;;2.80;97.50;;;;;;5105649;28;20119;-75
2021/12/21 19:21:51;;;;;;;10.50;5.80;;;2.60;97.00;;;;;;5103736;28;20045;-75
2021/12/21 19:24:16;;;;;;;13.45;6.55;;;2.50;97.00;;;;;;5101240;28;20020;-75
2021/12/21 19:26:42;;;;;;;13.88;6.50;;;2.40;97.00;;;;;;5102433;28;20120;-75
2021/12/21 19:29:09;;;;;;;10.55;7.35;;;2.30;97.20;;;;;;5103594;28;20099;-76
2021/12/21 19:31:35;;;;;;;13.77;6.40;;;2.30;96.70;;;;;;5112697;28;20031;-75
2021/12/21 19:34:01;;;;;;;14.63;7.22;;;2.40;96.90;;;;;;5105973;28;20019;-77
2021/12/21 19:36:29;;;;;;;11.65;6.85;;;2.40;97.00;;;;;;5102050;28;20115;-77
2021/12/21 19:38:56;;;;;;;10.90;6.18;;;2.30;97.40;;;;;;5099380;28;20012;-76
2021/12/21 19:41:21;;;;;;;13.65;6.68;;;2.30;97.40;;;;;;5085097;28;20038;-77
2021/12/21 19:43:47;;;;;;;14.20;6.80;;;2.20;97.30;;;;;;5101578;28;20024;-77
2021/12/21 19:46:14;;;;;;;12.90;6.93;;;2.20;97.30;;;;;;5099106;28;20036;-79
2021/12/21 19:48:40;;;;;;;13.93;6.95;;;2.20;97.30;;;;;;5099163;28;20551;-79
2021/12/21 19:51:06;;;;;;;18.80;10.60;;;2.20;97.20;;;;;;5114927;28;20032;-75
2021/12/21 19:53:32;;;;;;;18.67;9.82;;;2.00;97.80;;;;;;5094356;28;20029;-75
2021/12/21 19:55:59;;;;;;;15.07;8.93;;;2.10;97.80;;;;;;5090157;28;20092;-77
2021/12/21 19:58:25;;;;;;;19.58;10.80;;;2.00;97.80;;;;;;5099563;28;20443;-77
2021/12/21 20:00:52;;;;;;;14.35;8.00;;;2.10;98.10;;;;;;5098826;28;21052;-76
2021/12/21 20:03:26;;;;;;;12.43;7.68;;;2.20;98.20;;;;;;5101945;28;20095;-76
2021/12/21 20:05:52;;;;;;;16.00;8.75;;;2.20;96.80;;;;;;5089354;28;20342;-77
2021/12/21 20:08:18;;;;;;;19.10;8.90;;;2.20;96.70;;;;;;5100145;28;20507;-76
2021/12/21 20:10:49;;;;;;;17.33;9.13;;;2.00;97.70;;;;;;5098457;28;20028;-77
2021/12/21 20:13:15;;;;;;;13.80;8.40;;;2.00;97.80;;;;;;5089082;28;20461;-76
2021/12/21 20:15:44;;;;;;;13.40;8.45;;;2.00;97.70;;;;;;5096720;28;20051;-76
2021/12/21 20:18:13;;;;;;;16.15;8.27;;;2.10;97.90;;;;;;5087596;28;20086;-77
2021/12/21 20:20:42;;;;;;;16.02;8.45;;;2.20;97.80;;;;;;5078695;28;20566;-77
2021/12/21 20:23:09;;;;;;;13.80;7.22;;;2.10;97.80;;;;;;5072049;28;20024;-76
2021/12/21 20:25:35;;;;;;;13.52;8.32;;;2.10;97.20;;;;;;5066908;28;20021;-77
2021/12/21 20:28:02;;;;;;;12.77;7.85;;;2.10;97.10;;;;;;5066302;28;20352;-77
2021/12/21 20:30:29;;;;;;;19.15;8.07;;;2.20;97.60;;;;;;5070820;28;20370;-77
2021/12/21 20:32:55;;;;;;;15.65;8.20;;;2.20;97.90;;;;;;5074549;28;20121;-77
2021/12/21 20:35:26;;;;;;;14.30;7.63;;;2.20;97.90;;;;;;5065730;28;20036;-76
2021/12/21 20:37:53;;;;;;;12.48;7.45;;;2.20;97.80;;;;;;5066158;28;20035;-76
2021/12/21 20:40:19;;;;;;;19.08;10.00;;;2.20;97.80;;;;;;5065515;28;20056;-77
2021/12/21 20:42:47;;;;;;;17.00;9.10;;;2.10;97.60;;;;;;5081065;28;20084;-76